Time;durP1;ratioP1;P1;durP2;ratioP2;P2;SDS_P1;SDS_P2;PMS_P1;PMS_P2;Temp;Humidity;BMP_temperature;BMP_pressure;BME280_temperature;BME280_humidity;BME280_pressure;Samples;Min_cycle;Max_cycle;Signal;HPM_P1;HPM_P2
2022/01/26 00:07:14;;;;;;;122.47;45.63;;;4.60;99.90;;;;;;5035543;28;20212;-70
2022/01/26 00:09:39;;;;;;;119.30;46.03;;;4.70;99.90;;;;;;5035649;28;20166;-69
2022/01/26 00:12:05;;;;;;;124.90;46.83;;;4.70;99.90;;;;;;5035537;28;20185;-69
2022/01/26 00:14:31;;;;;;;111.63;46.30;;;4.70;99.90;;;;;;5035763;28;20233;-70
2022/01/26 00:16:59;;;;;;;117.13;45.37;;;4.80;99.90;;;;;;5035186;28;20715;-70
2022/01/26 00:19:32;;;;;;;111.03;46.40;;;4.90;99.90;;;;;;5035126;28;20248;-69
2022/01/26 00:21:58;;;;;;;109.47;44.13;;;4.70;99.90;;;;;;5035379;28;20206;-70
2022/01/26 00:29:39;;;;;;;123.27;47.63;;;4.20;99.90;;;;;;5035156;28;20171;-70
2022/01/26 00:40:40;;;;;;;118.13;44.70;;;4.20;99.90;;;;;;5035051;28;20185;-69
2022/01/26 00:43:16;;;;;;;118.53;48.53;;;4.30;99.90;;;;;;5034953;28;20205;-69
2022/01/26 00:45:43;;;;;;;119.47;47.33;;;4.40;99.90;;;;;;5034887;28;20227;-68
2022/01/26 00:48:10;;;;;;;123.73;48.13;;;4.50;99.90;;;;;;5034598;28;20177;-68
2022/01/26 00:50:38;;;;;;;124.83;49.47;;;4.40;99.90;;;;;;5034814;28;20178;-68
2022/01/26 00:53:07;;;;;;;117.33;46.93;;;4.60;99.90;;;;;;5034852;28;20190;-69
2022/01/26 00:55:33;;;;;;;116.20;47.93;;;4.50;99.90;;;;;;5034875;28;20249;-70
2022/01/26 00:57:59;;;;;;;115.83;45.43;;;4.50;99.90;;;;;;5034922;28;20182;-69
2022/01/26 01:00:26;;;;;;;122.43;47.53;;;4.50;99.90;;;;;;5034866;28;20201;-69
2022/01/26 01:02:53;;;;;;;113.90;47.03;;;4.30;99.90;;;;;;5034180;28;20186;-68
2022/01/26 01:05:24;;;;;;;119.10;47.90;;;4.20;99.90;;;;;;5016702;28;20364;-69
2022/01/26 01:07:55;;;;;;;117.93;48.57;;;4.30;99.90;;;;;;5034672;28;20185;-69
2022/01/26 01:10:23;;;;;;;118.77;47.80;;;4.40;99.90;;;;;;5034541;28;20186;-68
2022/01/26 01:12:54;;;;;;;120.97;47.90;;;4.40;99.90;;;;;;5034388;28;20189;-68
2022/01/26 01:15:20;;;;;;;119.20;47.43;;;4.40;99.90;;;;;;5034353;28;20280;-68
2022/01/26 01:17:51;;;;;;;115.57;47.73;;;4.30;99.90;;;;;;5033851;28;20190;-68
2022/01/26 01:25:59;;;;;;;107.50;46.10;;;4.40;99.90;;;;;;5034188;28;20232;-69
2022/01/26 01:30:56;;;;;;;117.43;48.30;;;4.40;99.90;;;;;;5034143;28;20257;-68
2022/01/26 01:33:28;;;;;;;114.13;46.77;;;4.30;99.90;;;;;;5033621;28;20162;-68
2022/01/26 01:35:53;;;;;;;123.17;48.30;;;4.40;99.90;;;;;;5034192;28;20166;-68
2022/01/26 01:38:21;;;;;;;110.10;45.50;;;4.50;99.90;;;;;;5033856;28;20169;-69
2022/01/26 01:40:49;;;;;;;123.70;48.50;;;4.50;99.90;;;;;;4999937;28;20618;-68
2022/01/26 01:43:17;;;;;;;115.40;47.03;;;4.50;99.90;;;;;;5033920;28;20190;-68
2022/01/26 01:45:48;;;;;;;116.33;47.73;;;4.40;99.90;;;;;;5033538;28;20213;-69
2022/01/26 01:48:19;;;;;;;117.07;47.97;;;4.40;99.90;;;;;;5033621;28;20657;-69
2022/01/26 01:50:45;;;;;;;115.50;45.97;;;4.50;99.90;;;;;;5033614;28;20292;-69
2022/01/26 01:53:14;;;;;;;117.30;45.20;;;4.50;99.90;;;;;;5033425;28;20625;-69
2022/01/26 01:55:42;;;;;;;117.43;46.13;;;4.40;99.90;;;;;;5033920;28;20187;-68
2022/01/26 01:58:08;;;;;;;115.10;45.33;;;4.40;99.90;;;;;;5033669;28;20170;-68
2022/01/26 02:00:35;;;;;;;116.57;46.57;;;4.40;99.90;;;;;;5015750;28;20224;-68
2022/01/26 02:03:01;;;;;;;119.90;46.53;;;4.30;99.90;;;;;;5033563;28;20173;-68
2022/01/26 02:05:27;;;;;;;120.33;46.53;;;4.30;99.90;;;;;;5033650;28;20210;-68
2022/01/26 02:07:53;;;;;;;115.20;47.93;;;4.40;99.90;;;;;;5033186;28;20181;-68
2022/01/26 02:10:22;;;;;;;111.67;44.70;;;4.40;99.90;;;;;;5033300;28;20235;-68
2022/01/26 02:12:52;;;;;;;106.20;45.33;;;4.50;99.90;;;;;;5032906;28;20193;-68
2022/01/26 02:15:23;;;;;;;107.73;45.13;;;4.60;99.90;;;;;;5015234;28;20220;-68
2022/01/26 02:55:34;;;;;;;109.43;42.40;;;4.30;99.90;;;;;;5033116;28;20170;-68
2022/01/26 03:06:05;;;;;;;108.63;41.60;;;4.20;99.90;;;;;;5010924;28;20245;-69
2022/01/26 03:08:38;;;;;;;106.57;40.90;;;4.40;99.90;;;;;;5011149;28;20184;-68
2022/01/26 03:11:10;;;;;;;103.77;38.90;;;4.40;99.90;;;;;;5010826;28;20281;-69
2022/01/26 03:13:41;;;;;;;96.13;37.77;;;4.50;99.90;;;;;;5010564;28;20237;-69
2022/01/26 03:16:15;;;;;;;99.40;37.13;;;4.40;99.90;;;;;;5011056;28;20206;-68
2022/01/26 03:21:29;;;;;;;104.13;38.73;;;4.20;99.90;;;;;;5011091;28;20170;-68
2022/01/26 03:29:43;;;;;;;98.13;36.47;;;4.20;99.90;;;;;;5014074;28;20224;-68
2022/01/26 03:34:34;;;;;;;98.27;36.70;;;4.10;99.90;;;;;;5014632;28;20171;-69
2022/01/26 03:37:06;;;;;;;101.50;37.50;;;4.10;99.90;;;;;;5014405;28;20267;-69
2022/01/26 03:39:40;;;;;;;106.33;37.93;;;4.20;99.90;;;;;;4998408;28;20226;-67
2022/01/26 03:42:08;;;;;;;93.30;34.87;;;4.10;99.90;;;;;;5022022;28;20205;-68
2022/01/26 03:44:34;;;;;;;106.00;37.20;;;4.00;99.90;;;;;;5036306;28;20174;-68
2022/01/26 03:47:00;;;;;;;91.90;34.13;;;4.00;99.90;;;;;;5035895;28;20202;-68
2022/01/26 03:49:25;;;;;;;86.47;34.50;;;4.00;99.90;;;;;;5036221;28;20248;-70
2022/01/26 03:51:51;;;;;;;99.03;36.43;;;4.00;99.90;;;;;;5035489;28;20289;-69
2022/01/26 03:54:18;;;;;;;94.47;34.77;;;3.80;99.90;;;;;;5035894;28;20197;-68
2022/01/26 03:56:44;;;;;;;97.67;34.80;;;3.80;99.90;;;;;;5035489;28;20169;-68
2022/01/26 03:59:10;;;;;;;97.13;35.17;;;3.90;99.90;;;;;;5035826;28;20217;-68
2022/01/26 04:01:36;;;;;;;99.20;35.90;;;3.90;99.90;;;;;;5035704;28;20702;-69
2022/01/26 04:04:03;;;;;;;95.83;35.90;;;4.00;99.90;;;;;;5035720;28;20244;-68
2022/01/26 04:06:30;;;;;;;93.60;35.27;;;3.90;99.90;;;;;;5035621;28;20256;-68
2022/01/26 04:08:56;;;;;;;95.43;34.83;;;3.80;99.90;;;;;;5035520;28;20170;-67
2022/01/26 04:11:33;;;;;;;96.50;34.77;;;3.70;99.90;;;;;;5035249;28;20205;-68
2022/01/26 04:14:00;;;;;;;97.37;35.60;;;3.70;99.90;;;;;;5035470;28;20188;-68
2022/01/26 04:16:26;;;;;;;95.80;34.57;;;3.80;99.90;;;;;;5035526;28;20181;-68
2022/01/26 04:18:54;;;;;;;98.37;37.60;;;3.80;99.90;;;;;;5035532;28;20170;-68
2022/01/26 04:21:47;;;;;;;94.07;34.87;;;3.80;99.90;;;;;;5035010;28;20622;-68
2022/01/26 04:29:14;;;;;;;94.80;36.00;;;3.50;99.90;;;;;;5035283;28;20170;-68
2022/01/26 04:31:39;;;;;;;91.70;33.87;;;3.50;99.90;;;;;;5035068;28;20220;-68
2022/01/26 04:34:05;;;;;;;99.07;35.83;;;3.60;99.90;;;;;;5035063;28;20630;-69
2022/01/26 04:36:37;;;;;;;94.73;36.20;;;3.60;99.90;;;;;;5034715;28;20170;-67
2022/01/26 04:39:08;;;;;;;92.33;36.33;;;3.60;99.90;;;;;;5017333;28;20254;-68
2022/01/26 04:44:07;;;;;;;99.80;37.50;;;3.60;99.90;;;;;;5034874;28;20253;-68
2022/01/26 04:46:33;;;;;;;98.67;37.93;;;3.50;99.90;;;;;;5018403;28;20213;-68
2022/01/26 04:48:59;;;;;;;95.40;36.73;;;3.50;99.90;;;;;;5034499;28;20629;-68
2022/01/26 04:51:25;;;;;;;100.17;38.30;;;3.50;99.90;;;;;;5034645;28;20324;-68
2022/01/26 04:53:50;;;;;;;91.43;36.03;;;3.50;99.90;;;;;;5034291;28;20299;-68
2022/01/26 04:56:16;;;;;;;94.90;36.10;;;3.50;99.90;;;;;;5033990;28;20170;-68
2022/01/26 04:58:42;;;;;;;104.80;37.67;;;3.50;99.90;;;;;;5034397;28;20177;-68
2022/01/26 05:01:08;;;;;;;100.60;37.03;;;3.50;99.90;;;;;;5034615;28;20220;-69
2022/01/26 05:03:33;;;;;;;99.87;38.20;;;3.60;99.90;;;;;;5034197;28;20645;-68
2022/01/26 05:05:59;;;;;;;98.37;37.50;;;3.60;99.90;;;;;;5034291;28;20198;-68
2022/01/26 05:08:24;;;;;;;99.57;37.30;;;3.60;99.90;;;;;;5034141;28;20643;-69
2022/01/26 05:10:50;;;;;;;96.37;36.17;;;3.60;99.90;;;;;;5033704;28;20169;-69
2022/01/26 05:13:16;;;;;;;100.77;38.43;;;3.70;99.90;;;;;;5033757;28;20181;-68
2022/01/26 05:15:43;;;;;;;96.87;37.93;;;3.60;99.90;;;;;;5034230;28;20169;-68
2022/01/26 05:18:10;;;;;;;97.33;36.37;;;3.60;99.90;;;;;;5034024;28;20170;-68
2022/01/26 05:20:35;;;;;;;102.33;38.60;;;3.50;99.90;;;;;;5033963;28;20228;-68
2022/01/26 05:23:01;;;;;;;103.07;39.13;;;3.50;99.90;;;;;;5033556;28;20221;-68
2022/01/26 05:25:27;;;;;;;100.57;38.43;;;3.50;99.90;;;;;;5034904;28;20221;-69
2022/01/26 05:27:53;;;;;;;109.30;40.33;;;3.60;99.90;;;;;;5053709;28;20570;-68
2022/01/26 05:30:18;;;;;;;102.83;38.07;;;3.50;99.90;;;;;;5053959;28;20161;-69
2022/01/26 05:32:44;;;;;;;102.93;37.83;;;3.60;99.90;;;;;;5053666;28;20177;-68
2022/01/26 05:35:10;;;;;;;102.80;40.17;;;3.60;99.90;;;;;;5053916;28;20165;-68
2022/01/26 05:37:36;;;;;;;103.00;39.13;;;3.60;99.90;;;;;;5053131;28;20256;-68
2022/01/26 05:40:03;;;;;;;106.60;40.10;;;3.60;99.90;;;;;;5052916;28;20561;-68
2022/01/26 05:42:30;;;;;;;103.03;37.93;;;3.40;99.90;;;;;;5053107;28;20655;-67
2022/01/26 05:45:02;;;;;;;106.57;39.30;;;3.50;99.90;;;;;;5053668;28;20536;-68
2022/01/26 05:47:27;;;;;;;114.40;40.20;;;3.50;99.90;;;;;;5052477;28;20628;-69
2022/01/26 05:49:53;;;;;;;110.83;42.40;;;3.60;99.90;;;;;;5052928;28;20236;-68
2022/01/26 05:52:19;;;;;;;105.87;39.27;;;3.60;99.90;;;;;;5052880;28;20648;-68
2022/01/26 05:54:44;;;;;;;109.77;41.40;;;3.70;99.90;;;;;;5052882;28;20180;-67
2022/01/26 05:57:11;;;;;;;108.40;41.57;;;3.80;99.90;;;;;;5052611;28;20169;-68
2022/01/26 05:59:37;;;;;;;104.67;40.10;;;3.70;99.90;;;;;;5053318;28;20177;-68
2022/01/26 06:02:04;;;;;;;104.10;39.87;;;3.60;99.90;;;;;;5053013;28;20272;-68
2022/01/26 06:04:29;;;;;;;112.17;39.77;;;3.60;99.90;;;;;;5052780;28;20219;-68
2022/01/26 06:06:56;;;;;;;115.70;42.60;;;3.40;99.90;;;;;;5052386;28;20212;-68
2022/01/26 06:09:22;;;;;;;106.47;40.50;;;3.50;99.90;;;;;;5052201;28;20165;-68
2022/01/26 06:11:47;;;;;;;117.37;42.90;;;3.50;99.90;;;;;;5052697;28;20579;-68
2022/01/26 06:14:13;;;;;;;111.67;43.20;;;3.50;99.90;;;;;;5052294;28;20208;-69
2022/01/26 06:16:39;;;;;;;114.57;41.80;;;3.60;99.90;;;;;;5052826;28;20205;-68
2022/01/26 06:19:04;;;;;;;114.20;42.67;;;3.60;99.90;;;;;;5052359;28;20169;-68
2022/01/26 06:21:30;;;;;;;115.77;43.20;;;3.60;99.90;;;;;;5052247;28;20683;-68
2022/01/26 06:23:55;;;;;;;114.97;42.47;;;3.70;99.90;;;;;;5051738;28;20213;-68
2022/01/26 06:26:21;;;;;;;107.13;41.63;;;3.70;99.90;;;;;;5032965;28;20663;-68
2022/01/26 06:28:47;;;;;;;114.10;41.37;;;3.80;99.90;;;;;;5032653;28;20190;-68
2022/01/26 06:31:15;;;;;;;104.47;40.40;;;3.90;99.90;;;;;;5032577;28;20181;-68
2022/01/26 06:33:42;;;;;;;103.07;40.60;;;3.90;99.90;;;;;;5032199;28;20256;-68
2022/01/26 06:36:12;;;;;;;113.80;41.77;;;3.70;99.90;;;;;;5031626;28;20168;-68
2022/01/26 06:38:42;;;;;;;107.40;40.40;;;3.70;99.90;;;;;;5032842;28;20169;-68
2022/01/26 06:41:08;;;;;;;114.63;43.30;;;3.70;99.90;;;;;;5031787;28;20170;-68
2022/01/26 06:43:34;;;;;;;108.13;40.30;;;3.70;99.90;;;;;;5032108;28;20193;-69
2022/01/26 06:46:06;;;;;;;116.10;40.33;;;3.70;99.90;;;;;;5031874;28;20716;-68
2022/01/26 06:48:45;;;;;;;112.70;42.60;;;3.70;99.90;;;;;;5032136;28;20209;-68
2022/01/26 06:51:12;;;;;;;108.20;41.43;;;3.70;99.90;;;;;;5031273;28;20177;-69
2022/01/26 06:53:38;;;;;;;105.40;41.93;;;3.70;99.90;;;;;;5032222;28;20264;-69
2022/01/26 06:56:04;;;;;;;104.10;39.67;;;3.70;99.90;;;;;;5031312;28;20510;-69
2022/01/26 06:58:30;;;;;;;114.83;42.07;;;3.70;99.90;;;;;;5032721;28;20261;-68
2022/01/26 07:00:57;;;;;;;109.60;42.30;;;3.60;99.90;;;;;;5035481;28;20177;-69
2022/01/26 07:03:23;;;;;;;106.27;40.27;;;3.60;99.90;;;;;;5034876;28;20170;-68
2022/01/26 07:05:49;;;;;;;108.67;42.50;;;3.60;99.90;;;;;;5035712;28;20193;-69
2022/01/26 07:08:14;;;;;;;110.97;42.07;;;3.70;99.90;;;;;;5035990;28;20182;-68
2022/01/26 07:10:41;;;;;;;109.40;41.87;;;3.60;99.90;;;;;;5035529;28;20242;-69
2022/01/26 07:13:06;;;;;;;115.43;42.83;;;3.60;99.90;;;;;;5035705;28;20756;-68
2022/01/26 07:23:47;;;;;;;113.57;42.80;;;3.90;99.90;;;;;;5035642;28;20474;-68
2022/01/26 07:26:12;;;;;;;117.83;44.60;;;3.90;99.90;;;;;;5035117;28;20232;-67
2022/01/26 07:28:39;;;;;;;111.17;43.73;;;3.90;99.90;;;;;;5035110;28;20524;-68
2022/01/26 07:31:06;;;;;;;110.23;42.67;;;3.90;99.90;;;;;;5034723;28;20166;-68
2022/01/26 07:33:32;;;;;;;107.87;43.07;;;4.00;99.90;;;;;;5034957;28;20219;-68
2022/01/26 07:35:59;;;;;;;103.73;41.87;;;4.00;99.90;;;;;;5034616;28;20244;-69
2022/01/26 07:38:27;;;;;;;106.57;42.93;;;4.00;99.90;;;;;;5034197;28;20327;-68
2022/01/26 07:40:54;;;;;;;106.50;41.60;;;4.10;99.90;;;;;;5015682;28;20246;-68
2022/01/26 07:43:20;;;;;;;110.67;44.60;;;4.10;99.90;;;;;;5035093;28;20194;-69
2022/01/26 07:45:46;;;;;;;108.47;45.57;;;4.10;99.90;;;;;;5034749;28;20193;-68
2022/01/26 07:48:11;;;;;;;114.93;44.23;;;4.00;99.90;;;;;;5034784;28;20497;-69
2022/01/26 07:50:37;;;;;;;104.87;43.10;;;4.10;99.90;;;;;;5034249;28;20174;-68
2022/01/26 07:53:03;;;;;;;104.43;42.73;;;4.20;99.90;;;;;;5034703;28;20184;-69
2022/01/26 07:55:30;;;;;;;106.47;42.47;;;4.20;99.90;;;;;;5035097;28;20256;-69
2022/01/26 07:57:57;;;;;;;105.57;42.37;;;4.00;99.90;;;;;;5033949;28;20169;-70
2022/01/26 08:00:23;;;;;;;100.73;42.50;;;3.90;99.90;;;;;;5029223;28;20330;-68
2022/01/26 08:02:50;;;;;;;99.17;40.67;;;4.00;99.90;;;;;;5040344;28;20174;-69
2022/01/26 08:05:21;;;;;;;103.80;42.10;;;4.10;99.90;;;;;;5037476;28;20282;-69
2022/01/26 08:07:47;;;;;;;108.50;43.27;;;4.00;99.90;;;;;;5047026;28;20221;-69
2022/01/26 08:10:12;;;;;;;104.50;42.90;;;4.00;99.90;;;;;;5041780;28;20303;-69
2022/01/26 08:12:39;;;;;;;101.33;41.50;;;3.90;99.90;;;;;;5048827;28;20493;-70
2022/01/26 08:15:08;;;;;;;96.20;40.50;;;3.80;99.90;;;;;;5037771;28;20173;-69
2022/01/26 08:17:35;;;;;;;99.27;42.87;;;3.60;99.90;;;;;;5048019;28;20200;-70
2022/01/26 08:20:05;;;;;;;101.10;41.47;;;3.80;99.90;;;;;;5033538;28;20304;-69
2022/01/26 08:22:32;;;;;;;101.47;41.27;;;3.80;99.90;;;;;;5035833;28;20219;-70
2022/01/26 08:24:57;;;;;;;97.70;40.70;;;3.80;99.90;;;;;;5037129;28;20659;-69
2022/01/26 08:27:26;;;;;;;99.90;39.73;;;3.80;99.90;;;;;;5049418;28;20217;-70
2022/01/26 08:29:56;;;;;;;99.80;39.90;;;3.90;99.90;;;;;;5043049;28;20161;-70
2022/01/26 08:32:22;;;;;;;97.10;40.93;;;3.80;99.90;;;;;;5040926;28;20261;-71
2022/01/26 08:34:48;;;;;;;104.73;42.83;;;3.90;99.90;;;;;;5050235;28;20620;-70
2022/01/26 08:37:13;;;;;;;100.40;42.27;;;4.00;99.90;;;;;;5036325;28;20226;-69
2022/01/26 08:39:39;;;;;;;95.70;40.33;;;4.10;99.90;;;;;;5046710;28;20166;-70
2022/01/26 08:42:06;;;;;;;98.50;40.70;;;4.00;99.90;;;;;;5043529;28;20197;-70
2022/01/26 08:44:33;;;;;;;98.13;40.00;;;4.10;99.90;;;;;;5039236;28;20181;-70
2022/01/26 08:46:59;;;;;;;95.87;39.77;;;4.10;99.90;;;;;;5049644;28;20213;-70
2022/01/26 08:49:27;;;;;;;99.93;42.33;;;4.10;99.90;;;;;;5038803;28;20651;-69
2022/01/26 08:51:56;;;;;;;91.03;40.87;;;4.10;99.90;;;;;;5044319;28;20272;-70
2022/01/26 08:54:22;;;;;;;97.83;41.13;;;4.00;99.90;;;;;;5046152;28;20173;-69
2022/01/26 08:56:49;;;;;;;94.20;41.13;;;3.90;99.90;;;;;;5052121;28;20633;-70
2022/01/26 08:59:15;;;;;;;92.03;38.70;;;4.10;99.90;;;;;;5033174;28;20177;-70
2022/01/26 09:01:41;;;;;;;88.90;39.23;;;4.10;99.90;;;;;;5039988;28;20169;-70
2022/01/26 09:04:07;;;;;;;101.90;40.87;;;4.10;99.90;;;;;;5042407;28;20511;-69
2022/01/26 09:06:38;;;;;;;90.90;39.07;;;4.20;99.90;;;;;;5047389;28;20209;-70
2022/01/26 09:09:07;;;;;;;93.43;40.33;;;4.10;99.90;;;;;;5036546;28;20185;-70
2022/01/26 09:11:35;;;;;;;91.10;38.20;;;4.10;99.90;;;;;;5046960;28;20205;-69
2022/01/26 09:14:07;;;;;;;95.00;40.20;;;4.20;99.90;;;;;;5042895;28;20222;-70
2022/01/26 09:16:34;;;;;;;93.83;40.10;;;4.20;99.90;;;;;;5038300;28;20182;-70
2022/01/26 09:19:06;;;;;;;95.40;41.33;;;4.20;99.90;;;;;;5049540;28;20177;-70
2022/01/26 09:21:32;;;;;;;90.17;39.80;;;4.30;99.90;;;;;;5038972;28;20652;-70
2022/01/26 09:23:58;;;;;;;96.00;41.13;;;4.40;99.90;;;;;;5043192;28;20167;-69
2022/01/26 09:26:23;;;;;;;92.57;39.87;;;4.40;99.90;;;;;;5046076;28;20225;-71
2022/01/26 09:28:49;;;;;;;94.07;42.17;;;4.30;99.90;;;;;;5036136;28;20622;-70
2022/01/26 09:31:14;;;;;;;95.83;42.70;;;4.40;99.90;;;;;;5048117;28;20182;-71
2022/01/26 09:33:40;;;;;;;97.90;42.77;;;4.40;99.90;;;;;;5039913;28;20171;-70
2022/01/26 09:36:07;;;;;;;96.63;41.97;;;4.30;99.90;;;;;;5042097;28;20479;-70
2022/01/26 09:38:33;;;;;;;90.37;40.60;;;4.20;99.90;;;;;;5047169;28;20637;-69
2022/01/26 09:40:58;;;;;;;94.30;41.03;;;4.40;99.90;;;;;;5036277;28;20261;-71
2022/01/26 09:43:28;;;;;;;89.33;41.10;;;4.30;99.90;;;;;;5047682;28;20638;-70
2022/01/26 09:45:53;;;;;;;90.67;40.83;;;4.40;99.90;;;;;;5041228;28;20211;-70
2022/01/26 09:48:19;;;;;;;96.23;43.27;;;4.40;99.90;;;;;;5039494;28;20174;-70
2022/01/26 09:50:47;;;;;;;89.83;39.63;;;4.50;99.90;;;;;;5047852;28;20185;-70
2022/01/26 09:53:21;;;;;;;77.10;38.73;;;4.60;99.90;;;;;;5035530;28;20260;-69
2022/01/26 09:55:47;;;;;;;88.63;38.67;;;4.60;99.90;;;;;;5046640;28;20211;-71
2022/01/26 09:58:15;;;;;;;87.27;40.10;;;4.50;99.90;;;;;;5047362;28;20212;-70
2022/01/26 10:00:46;;;;;;;80.57;37.73;;;4.60;99.90;;;;;;5035886;28;20241;-70
2022/01/26 10:03:13;;;;;;;69.20;32.53;;;4.70;99.90;;;;;;5032468;28;20186;-70
2022/01/26 10:05:41;;;;;;;98.53;45.60;;;4.70;99.90;;;;;;5038850;28;20268;-70
2022/01/26 10:08:40;;;;;;;77.73;36.37;;;4.80;99.90;;;;;;5041265;28;20174;-71
2022/01/26 10:19:04;;;;;;;73.57;35.27;;;5.10;99.90;;;;;;5048372;28;20180;-70
2022/01/26 10:21:33;;;;;;;79.83;38.20;;;5.10;99.90;;;;;;5037880;28;20220;-71
2022/01/26 10:24:09;;;;;;;79.87;37.57;;;5.10;99.90;;;;;;5042146;28;20245;-70
2022/01/26 10:26:37;;;;;;;72.70;36.77;;;5.10;99.90;;;;;;5046172;28;20721;-71
2022/01/26 10:29:05;;;;;;;74.37;35.00;;;5.10;99.90;;;;;;5033871;28;20582;-70
2022/01/26 10:31:38;;;;;;;73.97;35.37;;;5.10;99.90;;;;;;5048297;28;20582;-71
2022/01/26 10:34:16;;;;;;;78.20;36.63;;;5.20;99.90;;;;;;5043332;28;20189;-71
2022/01/26 10:36:54;;;;;;;74.13;36.73;;;5.20;99.90;;;;;;5036350;28;20537;-71
2022/01/26 10:39:29;;;;;;;76.60;36.13;;;5.20;99.90;;;;;;5035614;28;20334;-70
2022/01/26 10:42:00;;;;;;;73.47;35.17;;;5.20;99.90;;;;;;5042319;28;20266;-71
2022/01/26 10:45:02;;;;;;;76.30;36.27;;;5.00;99.90;;;;;;5044950;28;20178;-70
2022/01/26 10:47:37;;;;;;;75.53;36.33;;;5.10;99.90;;;;;;5031765;28;20209;-70
2022/01/26 10:50:32;;;;;;;73.83;36.50;;;5.10;99.90;;;;;;5041597;28;20569;-71
2022/01/26 10:53:11;;;;;;;79.73;36.10;;;5.10;99.90;;;;;;5034576;28;20181;-70
2022/01/26 10:55:38;;;;;;;71.90;35.17;;;5.00;99.90;;;;;;5033089;28;20512;-70
2022/01/26 10:58:05;;;;;;;79.80;38.20;;;5.10;99.90;;;;;;5040907;28;20184;-69
2022/01/26 11:00:38;;;;;;;84.83;39.10;;;5.10;99.90;;;;;;5045884;28;20189;-70
2022/01/26 11:03:08;;;;;;;85.13;39.63;;;5.10;99.90;;;;;;5034352;28;20660;-70
2022/01/26 11:05:33;;;;;;;88.80;40.27;;;5.20;99.90;;;;;;5045224;28;20220;-71
2022/01/26 11:08:01;;;;;;;81.80;39.97;;;5.20;99.90;;;;;;5041297;28;20181;-70
2022/01/26 11:10:36;;;;;;;77.20;37.80;;;5.10;99.90;;;;;;5037692;28;20212;-69
2022/01/26 11:13:04;;;;;;;86.37;40.83;;;4.90;99.90;;;;;;5046852;28;20185;-70
2022/01/26 11:15:30;;;;;;;90.77;41.67;;;4.80;99.90;;;;;;5037504;28;20236;-70
2022/01/26 11:18:20;;;;;;;90.40;41.60;;;4.90;99.90;;;;;;5041628;28;20180;-71
2022/01/26 11:20:51;;;;;;;90.97;40.73;;;4.90;99.90;;;;;;5047439;28;20234;-69
2022/01/26 11:23:37;;;;;;;86.77;39.93;;;4.80;99.90;;;;;;5035290;28;20280;-71
2022/01/26 11:26:03;;;;;;;88.50;40.83;;;4.80;99.90;;;;;;5040597;28;20712;-71
2022/01/26 11:28:29;;;;;;;93.20;42.77;;;4.80;99.90;;;;;;5044626;28;20184;-70
2022/01/26 11:31:02;;;;;;;87.50;40.13;;;4.80;99.90;;;;;;5034907;28;20174;-71
2022/01/26 11:33:30;;;;;;;89.97;42.23;;;4.70;99.90;;;;;;5045991;28;20246;-71
2022/01/26 11:35:57;;;;;;;138.37;85.47;;;4.80;99.90;;;;;;5031361;28;20178;-71
2022/01/26 11:38:41;;;;;;;89.57;46.20;;;4.90;99.90;;;;;;5030785;28;20178;-70
2022/01/26 11:47:25;;;;;;;92.43;40.80;;;5.10;99.90;;;;;;5035048;28;20220;-71
2022/01/26 11:50:01;;;;;;;89.87;42.83;;;5.10;99.90;;;;;;5035255;28;20638;-72
2022/01/26 11:52:29;;;;;;;90.10;41.17;;;5.10;99.90;;;;;;5034879;28;20247;-71
2022/01/26 11:54:58;;;;;;;104.07;55.77;;;5.10;99.90;;;;;;5034835;28;20192;-71
2022/01/26 11:58:25;;;;;;;92.47;42.37;;;5.10;99.90;;;;;;5033822;28;20609;-71
2022/01/26 12:01:10;;;;;;;93.27;40.60;;;5.10;99.90;;;;;;4972870;28;20184;-71
2022/01/26 12:03:43;;;;;;;92.90;42.30;;;5.00;99.90;;;;;;5034463;28;20228;-71
2022/01/26 12:06:17;;;;;;;89.33;42.33;;;5.00;99.90;;;;;;5034855;28;20212;-71
2022/01/26 12:08:43;;;;;;;90.00;42.57;;;5.10;99.90;;;;;;5034725;28;20312;-71
2022/01/26 12:11:14;;;;;;;91.87;45.17;;;5.00;99.90;;;;;;5034154;28;20641;-71
2022/01/26 12:13:41;;;;;;;94.83;44.47;;;4.90;99.90;;;;;;5034416;28;20306;-71
2022/01/26 12:16:23;;;;;;;85.23;39.93;;;4.80;99.90;;;;;;5034379;28;20599;-71
2022/01/26 12:19:10;;;;;;;87.20;44.33;;;4.90;99.90;;;;;;5033572;28;20173;-71
2022/01/26 12:35:20;;;;;;;86.40;41.90;;;5.10;99.90;;;;;;5034569;28;20177;-71
2022/01/26 12:43:38;;;;;;;90.00;40.87;;;4.90;99.90;;;;;;5034117;28;20212;-71
2022/01/26 12:46:09;;;;;;;85.93;41.97;;;4.80;99.90;;;;;;5034227;28;20209;-71
2022/01/26 12:48:38;;;;;;;86.93;40.53;;;4.80;99.90;;;;;;5033940;28;20166;-71
2022/01/26 12:51:06;;;;;;;92.17;41.17;;;4.80;99.90;;;;;;5033368;28;20640;-71
2022/01/26 12:53:35;;;;;;;83.77;38.43;;;4.90;99.90;;;;;;5033509;28;20194;-71
2022/01/26 12:56:03;;;;;;;83.47;39.63;;;4.90;99.90;;;;;;5033976;28;20170;-70
2022/01/26 12:58:32;;;;;;;92.87;40.33;;;5.10;99.90;;;;;;5033865;28;20182;-71
2022/01/26 13:01:09;;;;;;;91.63;40.67;;;5.00;99.90;;;;;;5034132;28;20174;-71
2022/01/26 13:03:38;;;;;;;94.60;40.30;;;4.90;99.90;;;;;;5033468;28;20179;-71
2022/01/26 13:06:09;;;;;;;92.13;39.60;;;4.70;99.90;;;;;;5033975;28;20205;-71
2022/01/26 13:08:48;;;;;;;89.13;38.07;;;4.60;99.90;;;;;;5032768;28;20666;-71
2022/01/26 13:11:35;;;;;;;90.00;41.20;;;4.60;99.90;;;;;;5033475;28;20245;-70
2022/01/26 13:14:17;;;;;;;88.67;39.53;;;4.60;99.90;;;;;;5015532;28;20220;-70
2022/01/26 13:19:51;;;;;;;91.90;42.83;;;4.70;99.90;;;;;;5047413;28;20170;-70
2022/01/26 13:25:17;;;;;;;86.20;36.40;;;4.80;99.90;;;;;;5044474;28;20703;-71
2022/01/26 13:28:08;;;;;;;83.73;36.67;;;4.90;99.90;;;;;;5038052;28;20249;-70
2022/01/26 13:33:38;;;;;;;82.53;36.43;;;4.90;99.90;;;;;;5036215;28;20237;-70
2022/01/26 13:38:43;;;;;;;83.63;37.37;;;4.80;99.90;;;;;;5036604;28;20249;-71
2022/01/26 13:41:34;;;;;;;84.10;37.27;;;4.80;99.90;;;;;;5034302;28;20197;-70
2022/01/26 13:47:12;;;;;;;83.10;35.40;;;4.80;99.90;;;;;;5036573;28;20224;-70
2022/01/26 13:52:28;;;;;;;90.57;37.97;;;4.70;99.90;;;;;;5039602;28;20666;-70
2022/01/26 14:00:06;;;;;;;82.67;32.87;;;4.80;99.90;;;;;;5039189;28;20234;-70
2022/01/26 14:02:34;;;;;;;81.50;34.53;;;4.80;99.90;;;;;;5048208;28;20235;-71
2022/01/26 14:04:59;;;;;;;77.93;33.63;;;4.70;99.90;;;;;;5045008;28;20209;-71
2022/01/26 14:07:25;;;;;;;79.67;35.77;;;4.70;99.90;;;;;;5044643;28;20648;-71
2022/01/26 14:09:50;;;;;;;80.00;34.37;;;4.90;99.90;;;;;;5034185;28;20515;-71
2022/01/26 14:12:21;;;;;;;80.63;33.47;;;4.90;99.90;;;;;;5035237;28;20261;-71
2022/01/26 14:14:52;;;;;;;77.00;34.13;;;4.80;99.90;;;;;;5039598;28;20166;-70
2022/01/26 14:17:27;;;;;;;74.43;32.60;;;4.90;99.90;;;;;;5038285;28;20257;-70
2022/01/26 14:27:53;;;;;;;68.90;31.77;;;4.90;99.90;;;;;;5032737;28;20312;-71
2022/01/26 14:30:33;;;;;;;73.93;31.80;;;5.00;99.90;;;;;;5039073;28;20180;-71
2022/01/26 14:33:45;;;;;;;73.90;31.53;;;5.00;99.90;;;;;;5045588;28;20185;-71
2022/01/26 14:54:47;;;;;;;83.43;33.57;;;4.60;99.90;;;;;;5034924;28;20178;-69
2022/01/26 15:00:13;;;;;;;112.57;55.40;;;4.50;99.90;;;;;;5031332;28;20244;-71
2022/01/26 15:40:35;;;;;;;74.00;32.23;;;4.60;99.90;;;;;;5042552;28;20517;-70
2022/01/26 15:43:47;;;;;;;73.60;32.03;;;4.60;99.90;;;;;;5050186;28;20205;-70
2022/01/26 15:51:14;;;;;;;67.23;30.87;;;4.60;99.90;;;;;;5038129;28;20174;-70
2022/01/26 16:05:38;;;;;;;65.50;29.70;;;4.80;99.90;;;;;;5034181;28;20185;-71
2022/01/26 18:06:20;;;;;;;89.53;45.83;;;5.00;99.90;;;;;;5032676;28;20187;-71
2022/01/26 18:16:25;;;;;;;71.03;34.87;;;5.10;99.90;;;;;;5032126;28;20575;-71
2022/01/26 18:38:44;;;;;;;56.63;29.67;;;5.20;99.90;;;;;;5032227;28;20237;-71
2022/01/26 18:49:19;;;;;;;62.40;32.20;;;5.20;99.90;;;;;;5032082;28;20782;-71
2022/01/26 18:51:52;;;;;;;56.87;29.07;;;5.20;99.90;;;;;;5031751;28;20594;-71
2022/01/26 18:54:19;;;;;;;53.63;29.67;;;5.10;99.90;;;;;;5033123;28;20166;-70
2022/01/26 18:56:46;;;;;;;59.97;30.70;;;5.10;99.90;;;;;;5035802;28;20657;-72
2022/01/26 18:59:13;;;;;;;57.57;29.27;;;5.00;99.90;;;;;;5036348;28;20170;-72
2022/01/26 19:01:39;;;;;;;54.97;29.40;;;5.00;99.90;;;;;;5036341;28;20261;-71
2022/01/26 19:04:05;;;;;;;59.40;30.53;;;5.00;99.90;;;;;;5036405;28;20162;-70
2022/01/26 19:06:30;;;;;;;52.40;28.90;;;5.00;99.90;;;;;;5036109;28;20201;-71
2022/01/26 19:08:56;;;;;;;55.80;29.27;;;5.00;99.90;;;;;;5035807;28;20174;-70
2022/01/26 19:11:22;;;;;;;60.20;30.80;;;5.00;99.90;;;;;;5035961;28;20284;-70
2022/01/26 19:13:49;;;;;;;55.73;29.00;;;5.00;99.90;;;;;;5035725;28;20272;-71
2022/01/26 19:24:51;;;;;;;51.80;26.70;;;4.90;99.90;;;;;;5014337;28;20216;-70
2022/01/26 19:32:42;;;;;;;53.87;26.97;;;5.00;99.90;;;;;;5036353;28;20226;-71